Memphis, Tennessee
Current Conditions -  °F | °C
As of 2:54 AM on Wednesday 22 Oct 2014 (Local Time) from KMEM Reporting Station
Clear Clear  
Wind Chill: 13°   Ceiling: Unl
Heat Index: 13°   Visibility: 10mi
Dew Point:   Wind: 6mph
Humidity: 69%   Direction: 90°E
Pressure: 30.14"   Gusts: NA
Location:  35.15°N, 90.05°W
Report Text: KMEM 220754Z 09005KT 10SM CLR 13/08 A3014 RMK AO2 SLP205 T01330078 $
Loading
Personal Weather Stations






























Interactive Weather Map
Tropical Storm Tracking
New forecast layout! Learn more

10-Day Weather Forecast

Advertisements
Track Severe Weather on mobile